createdAt,value
2023-06-10T00:02:05.984Z,22.50
2023-06-10T00:04:32.915Z,22.50
2023-06-10T00:06:59.855Z,22.50
2023-06-10T00:09:27.754Z,22.40
2023-06-10T00:11:54.753Z,22.40
2023-06-10T00:14:21.648Z,22.30
2023-06-10T00:16:48.567Z,22.30
2023-06-10T00:19:16.890Z,22.30
2023-06-10T00:21:45.764Z,22.30
2023-06-10T00:24:15.161Z,22.20
2023-06-10T00:26:42.677Z,22.20
2023-06-10T00:29:09.963Z,22.10
2023-06-10T00:31:38.120Z,22.10
2023-06-10T00:34:05.459Z,22.00
2023-06-10T00:36:33.682Z,22.00
2023-06-10T00:39:00.591Z,21.90
2023-06-10T00:41:27.574Z,21.90
2023-06-10T00:43:54.545Z,21.90
2023-06-10T00:46:22.444Z,21.90
2023-06-10T00:48:49.572Z,21.90
2023-06-10T00:51:17.622Z,21.90
2023-06-10T00:53:46.631Z,21.90
2023-06-10T00:56:14.789Z,21.90
2023-06-10T00:58:41.713Z,21.90
2023-06-10T01:01:11.859Z,21.80
2023-06-10T01:03:39.204Z,21.80
2023-06-10T01:06:15.769Z,21.80
2023-06-10T01:08:51.786Z,21.80
2023-06-10T01:11:21.985Z,21.80
2023-06-10T01:13:52.518Z,21.70
2023-06-10T01:16:20.874Z,21.70
2023-06-10T01:18:47.755Z,21.70
2023-06-10T01:21:20.601Z,21.70
2023-06-10T01:23:47.521Z,21.70
2023-06-10T01:26:16.521Z,21.70
2023-06-10T01:28:49.814Z,21.70
2023-06-10T01:31:22.316Z,21.70
2023-06-10T01:33:52.807Z,21.70
2023-06-10T01:36:23.107Z,21.70
2023-06-10T01:38:52.539Z,21.70
2023-06-10T01:41:22.188Z,21.70
2023-06-10T01:43:49.958Z,21.70
2023-06-10T01:46:20.763Z,21.60
2023-06-10T01:48:47.811Z,21.60
2023-06-10T01:51:14.726Z,21.60
2023-06-10T01:53:42.914Z,21.60
2023-06-10T01:56:09.720Z,21.60
2023-06-10T01:58:36.714Z,21.50
2023-06-10T02:01:03.694Z,21.50
2023-06-10T02:03:30.883Z,21.50
2023-06-10T02:05:57.811Z,21.40
2023-06-10T02:08:24.663Z,21.40
2023-06-10T02:10:52.854Z,21.30
2023-06-10T02:13:19.688Z,21.30
2023-06-10T02:15:46.511Z,21.30
2023-06-10T02:18:13.356Z,21.20
2023-06-10T02:20:40.329Z,21.10
2023-06-10T02:23:07.209Z,21.10
2023-06-10T02:25:34.091Z,21.10
2023-06-10T02:28:04.458Z,21.20
2023-06-10T02:30:31.467Z,21.10
2023-06-10T02:33:00.271Z,21.10
2023-06-10T02:35:27.378Z,21.10
2023-06-10T02:37:54.302Z,21.10
2023-06-10T02:40:21.430Z,21.10
2023-06-10T02:42:48.268Z,21.00
2023-06-10T02:45:16.592Z,21.00
2023-06-10T02:47:43.583Z,21.00
2023-06-10T02:50:10.822Z,20.90
2023-06-10T02:52:37.772Z,20.90
2023-06-10T02:55:05.237Z,20.90
2023-06-10T02:57:32.134Z,20.90
2023-06-10T02:59:59.616Z,20.80
2023-06-10T03:02:29.477Z,20.80
2023-06-10T03:04:56.689Z,20.80
2023-06-10T03:07:24.139Z,20.80
2023-06-10T03:09:51.673Z,20.80
2023-06-10T03:12:18.633Z,20.80
2023-06-10T03:14:45.535Z,20.80
2023-06-10T03:17:12.441Z,20.80
2023-06-10T03:19:40.696Z,20.90
2023-06-10T03:22:11.865Z,20.90
2023-06-10T03:24:41.091Z,20.90
2023-06-10T03:27:08.676Z,20.90
2023-06-10T03:29:35.828Z,20.90
2023-06-10T03:32:02.849Z,20.90
2023-06-10T03:34:30.918Z,20.90
2023-06-10T03:36:59.375Z,20.90
2023-06-10T03:39:29.896Z,20.90
2023-06-10T03:41:58.229Z,20.80
2023-06-10T03:44:26.968Z,20.80
2023-06-10T03:46:54.267Z,20.80
2023-06-10T03:49:21.101Z,20.70
2023-06-10T03:51:48.078Z,20.70
2023-06-10T03:54:16.327Z,20.70
2023-06-10T03:56:43.145Z,20.70
2023-06-10T03:59:10.065Z,20.70
2023-06-10T04:01:38.537Z,20.70
2023-06-10T04:04:05.701Z,20.60
2023-06-10T04:06:32.744Z,20.60
2023-06-10T04:08:59.633Z,20.60
2023-06-10T04:11:27.892Z,20.60
2023-06-10T04:13:54.754Z,20.60
2023-06-10T04:16:22.349Z,20.50
2023-06-10T04:18:49.336Z,20.50
2023-06-10T04:21:16.340Z,20.50
2023-06-10T04:23:43.265Z,20.50
2023-06-10T04:26:10.979Z,20.60
2023-06-10T04:28:39.383Z,20.60
2023-06-10T04:31:06.256Z,20.70
2023-06-10T04:33:33.584Z,20.70
2023-06-10T04:36:00.817Z,20.70
2023-06-10T04:38:28.202Z,20.80
2023-06-10T04:40:55.040Z,20.80
2023-06-10T04:43:21.956Z,20.90
2023-06-10T04:45:50.126Z,20.90
2023-06-10T04:48:16.993Z,21.00
2023-06-10T04:50:43.846Z,21.00
2023-06-10T04:53:10.725Z,21.00
2023-06-10T04:55:37.612Z,21.10
2023-06-10T04:58:04.525Z,21.10
2023-06-10T05:00:31.362Z,21.10
2023-06-10T05:02:59.595Z,21.10
2023-06-10T05:05:26.490Z,21.20
2023-06-10T05:07:53.349Z,21.30
2023-06-10T05:10:20.263Z,21.30
2023-06-10T05:12:47.071Z,21.30
2023-06-10T05:15:14.072Z,21.40
2023-06-10T05:17:41.187Z,21.50
2023-06-10T05:20:10.700Z,21.50
2023-06-10T05:22:37.518Z,21.60
2023-06-10T05:25:04.958Z,21.70
2023-06-10T05:27:32.003Z,21.80
2023-06-10T05:29:59.179Z,21.80
2023-06-10T05:32:26.166Z,21.90
2023-06-10T05:34:52.998Z,22.00
2023-06-10T05:37:21.257Z,22.10
2023-06-10T05:39:48.123Z,22.10
2023-06-10T05:42:15.091Z,22.20
2023-06-10T05:44:41.982Z,22.30
2023-06-10T05:47:08.908Z,22.40
2023-06-10T05:49:35.830Z,22.50
2023-06-10T05:52:02.692Z,22.50
2023-06-10T05:54:30.928Z,22.50
2023-06-10T05:56:58.030Z,22.60
2023-06-10T05:59:24.900Z,22.70
2023-06-10T06:01:51.782Z,22.70
2023-06-10T06:04:18.753Z,22.70
2023-06-10T06:06:45.735Z,22.80
2023-06-10T06:09:12.680Z,22.90
2023-06-10T06:11:41.017Z,23.00
2023-06-10T06:14:07.937Z,23.00
2023-06-10T06:16:34.864Z,23.10
2023-06-10T06:19:01.756Z,23.20
2023-06-10T06:21:28.606Z,23.20
2023-06-10T06:23:55.568Z,23.30
2023-06-10T06:26:22.430Z,23.40
2023-06-10T06:28:50.732Z,23.50
2023-06-10T06:31:17.701Z,23.50
2023-06-10T06:33:44.992Z,23.60
2023-06-10T06:36:11.800Z,23.60
2023-06-10T06:38:38.650Z,23.70
2023-06-10T06:41:07.574Z,23.80
2023-06-10T06:43:34.958Z,23.80
2023-06-10T06:46:03.224Z,23.90
2023-06-10T06:48:30.354Z,23.90
2023-06-10T06:50:58.941Z,24.00
2023-06-10T06:53:26.141Z,24.00
2023-06-10T06:55:53.120Z,24.10
2023-06-10T06:58:20.046Z,24.10
2023-06-10T07:00:47.112Z,24.10
2023-06-10T07:03:15.405Z,24.10
2023-06-10T07:05:42.487Z,24.20
2023-06-10T07:08:09.557Z,24.30
2023-06-10T07:10:36.527Z,24.30
2023-06-10T07:13:03.622Z,24.40
2023-06-10T07:15:30.601Z,24.50
2023-06-10T07:17:57.626Z,24.50
2023-06-10T07:20:25.917Z,24.70
2023-06-10T07:22:52.863Z,24.70
2023-06-10T07:25:19.896Z,24.90
2023-06-10T07:27:46.775Z,25.00
2023-06-10T07:30:14.298Z,25.10
2023-06-10T07:32:41.259Z,25.10
2023-06-10T07:35:11.612Z,25.20
2023-06-10T07:37:40.269Z,25.30
2023-06-10T07:40:08.272Z,25.40
2023-06-10T07:42:36.342Z,25.50
2023-06-10T07:45:03.283Z,25.60
2023-06-10T07:47:31.152Z,25.60
2023-06-10T07:49:58.178Z,25.70
2023-06-10T07:52:25.422Z,25.80
2023-06-10T07:54:53.648Z,25.80
2023-06-10T07:57:20.920Z,25.90
2023-06-10T07:59:47.788Z,25.90
2023-06-10T08:02:14.706Z,26.00
2023-06-10T08:04:41.690Z,26.10
2023-06-10T08:07:08.609Z,26.20
2023-06-10T08:09:35.973Z,26.20
2023-06-10T08:12:05.416Z,26.50
2023-06-10T08:14:32.263Z,26.50
2023-06-10T08:16:59.374Z,26.60
2023-06-10T08:19:26.226Z,26.70
2023-06-10T08:21:53.072Z,26.80
2023-06-10T08:24:21.095Z,26.80
2023-06-10T08:26:48.244Z,26.90
2023-06-10T08:29:16.486Z,27.10
2023-06-10T08:31:44.111Z,27.10
2023-06-10T08:34:11.295Z,27.20
2023-06-10T08:36:38.138Z,27.20
2023-06-10T08:39:05.256Z,27.20
2023-06-10T08:41:36.717Z,27.30
2023-06-10T08:44:10.025Z,27.40
2023-06-10T08:46:39.681Z,27.40
2023-06-10T08:49:10.694Z,27.50
2023-06-10T08:51:38.464Z,27.50
2023-06-10T08:54:12.895Z,27.60
2023-06-10T08:56:41.330Z,27.70
2023-06-10T08:59:09.184Z,27.80
2023-06-10T09:01:36.900Z,27.90
2023-06-10T09:04:05.741Z,28.00
2023-06-10T09:06:35.131Z,28.10
2023-06-10T09:09:03.888Z,28.10
2023-06-10T09:11:32.535Z,28.10
2023-06-10T09:13:59.371Z,28.20
2023-06-10T09:16:26.513Z,28.30
2023-06-10T09:18:56.165Z,28.30
2023-06-10T09:21:24.956Z,28.30
2023-06-10T09:23:52.266Z,28.40
2023-06-10T09:26:19.406Z,28.40
2023-06-10T09:28:49.477Z,28.40
2023-06-10T09:31:19.458Z,28.40
2023-06-10T09:33:46.622Z,28.50
2023-06-10T09:36:24.321Z,28.50
2023-06-10T09:38:54.453Z,28.60
2023-06-10T09:41:22.580Z,28.70
2023-06-10T09:43:50.186Z,28.80
2023-06-10T09:46:18.123Z,28.90
2023-06-10T09:48:45.998Z,29.00
2023-06-10T09:51:14.379Z,29.00
2023-06-10T09:53:42.790Z,29.10
2023-06-10T09:56:11.151Z,29.10
2023-06-10T09:58:39.532Z,29.10
2023-06-10T10:01:07.428Z,29.10
2023-06-10T10:03:34.367Z,29.20
2023-06-10T10:06:04.545Z,29.30
2023-06-10T10:08:31.540Z,29.30
2023-06-10T10:11:00.293Z,29.40
2023-06-10T10:13:28.956Z,29.40
2023-06-10T10:16:01.019Z,29.50
2023-06-10T10:18:31.602Z,29.60
2023-06-10T10:21:02.161Z,29.60
2023-06-10T10:23:35.599Z,29.70
2023-06-10T10:26:10.505Z,29.80
2023-06-10T10:28:42.555Z,29.90
2023-06-10T10:31:11.842Z,30.10
2023-06-10T10:33:47.016Z,30.20
2023-06-10T10:36:16.521Z,30.30
2023-06-10T10:38:44.118Z,30.50
2023-06-10T10:41:13.092Z,30.60
2023-06-10T10:43:40.223Z,30.80
2023-06-10T10:46:18.435Z,30.70
2023-06-10T10:48:46.664Z,30.80
2023-06-10T10:51:16.548Z,30.80
2023-06-10T10:53:45.676Z,30.90
2023-06-10T10:56:16.942Z,31.00
2023-06-10T10:58:43.815Z,31.00
2023-06-10T11:01:15.927Z,31.10
2023-06-10T11:03:48.122Z,31.10
2023-06-10T11:06:16.825Z,31.10
2023-06-10T11:08:48.702Z,31.20
2023-06-10T11:11:22.617Z,31.30
2023-06-10T11:14:10.737Z,31.40
2023-06-10T11:16:45.140Z,31.50
2023-06-10T11:19:38.573Z,31.50
2023-06-10T11:22:07.815Z,31.70
2023-06-10T11:24:35.058Z,31.70
2023-06-10T11:27:20.447Z,31.60
2023-06-10T11:30:00.674Z,31.70
2023-06-10T11:32:32.043Z,31.80
2023-06-10T11:34:59.461Z,31.90
2023-06-10T11:37:26.448Z,32.00
2023-06-10T11:39:54.504Z,32.00
2023-06-10T11:42:23.264Z,32.00
2023-06-10T11:44:51.189Z,32.10
2023-06-10T11:47:18.332Z,32.20
2023-06-10T11:49:46.536Z,32.20
2023-06-10T11:52:15.038Z,32.30
2023-06-10T11:54:41.875Z,32.50
2023-06-10T11:57:09.627Z,32.50
2023-06-10T11:59:37.921Z,32.50
2023-06-10T12:02:05.402Z,32.40
2023-06-10T12:04:32.316Z,32.30
2023-06-10T12:06:59.266Z,32.40
2023-06-10T12:09:28.285Z,32.40
2023-06-10T12:11:59.260Z,32.40
2023-06-10T12:14:59.091Z,32.40
2023-06-10T12:17:38.385Z,32.20
2023-06-10T12:20:07.603Z,32.20
2023-06-10T12:22:38.230Z,32.20
2023-06-10T12:25:07.868Z,32.30
2023-06-10T12:27:36.311Z,32.30
2023-06-10T12:30:07.016Z,32.40
2023-06-10T12:32:39.479Z,32.40
2023-06-10T12:35:08.649Z,32.40
2023-06-10T12:37:38.642Z,32.40
2023-06-10T12:40:09.874Z,32.40
2023-06-10T12:42:38.105Z,32.40
2023-06-10T12:45:10.230Z,32.30
2023-06-10T12:47:42.403Z,32.30
2023-06-10T12:50:10.332Z,32.30
2023-06-10T12:52:37.355Z,32.40
2023-06-10T12:55:05.278Z,32.50
2023-06-10T12:57:32.588Z,32.40
2023-06-10T13:00:04.770Z,32.70
2023-06-10T13:02:33.401Z,32.80
2023-06-10T13:05:00.458Z,33.00
2023-06-10T13:07:27.530Z,33.00
2023-06-10T13:09:54.509Z,32.80
2023-06-10T13:12:33.693Z,32.60
2023-06-10T13:15:09.693Z,32.50
2023-06-10T13:17:38.074Z,32.50
2023-06-10T13:20:08.690Z,32.60
2023-06-10T13:22:37.600Z,32.60
2023-06-10T13:25:05.554Z,32.80
2023-06-10T13:27:32.520Z,32.90
2023-06-10T13:29:59.466Z,32.90
2023-06-10T13:32:26.410Z,32.90
2023-06-10T13:34:55.052Z,32.90
2023-06-10T13:37:22.052Z,32.90
2023-06-10T13:39:51.567Z,32.90
2023-06-10T13:42:18.578Z,33.00
2023-06-10T13:44:45.511Z,33.10
2023-06-10T13:47:12.603Z,33.20
2023-06-10T13:49:39.707Z,33.30
2023-06-10T13:52:08.871Z,33.30
2023-06-10T13:54:37.147Z,33.30
2023-06-10T13:57:04.514Z,33.20
2023-06-10T13:59:31.419Z,33.10
2023-06-10T14:01:58.438Z,32.90
2023-06-10T14:04:25.269Z,32.80
2023-06-10T14:06:52.413Z,32.80
2023-06-10T14:09:20.660Z,32.90
2023-06-10T14:11:48.584Z,32.90
2023-06-10T14:14:16.027Z,32.80
2023-06-10T14:16:43.723Z,32.70
2023-06-10T14:19:10.873Z,32.50
2023-06-10T14:21:37.826Z,32.40
2023-06-10T14:24:05.084Z,32.30
2023-06-10T14:26:34.167Z,32.20
2023-06-10T14:29:01.208Z,32.20
2023-06-10T14:31:28.177Z,32.10
2023-06-10T14:33:55.189Z,32.30
2023-06-10T14:36:22.038Z,32.40
2023-06-10T14:38:48.951Z,32.50
2023-06-10T14:41:15.790Z,32.40
2023-06-10T14:43:44.117Z,32.50
2023-06-10T14:46:11.111Z,32.60
2023-06-10T14:48:38.036Z,32.60
2023-06-10T14:51:05.046Z,32.50
2023-06-10T14:53:31.927Z,32.50
2023-06-10T14:55:58.804Z,32.50
2023-06-10T14:58:25.735Z,32.60
2023-06-10T15:00:54.010Z,32.60
2023-06-10T15:03:20.949Z,32.60
2023-06-10T15:05:47.985Z,32.50
2023-06-10T15:08:14.853Z,32.40
2023-06-10T15:10:41.813Z,32.40
2023-06-10T15:13:08.693Z,32.30
2023-06-10T15:15:35.512Z,32.20
2023-06-10T15:18:03.951Z,32.30
2023-06-10T15:20:31.216Z,32.30
2023-06-10T15:22:58.065Z,32.30
2023-06-10T15:25:31.276Z,32.30
2023-06-10T15:27:59.512Z,32.40
2023-06-10T15:30:26.573Z,32.30
2023-06-10T15:32:53.577Z,32.30
2023-06-10T15:35:22.860Z,32.30
2023-06-10T15:37:49.812Z,32.30
2023-06-10T15:40:16.681Z,32.30
2023-06-10T15:42:44.392Z,32.20
2023-06-10T15:45:12.063Z,32.20
2023-06-10T15:47:41.629Z,32.20
2023-06-10T15:50:09.181Z,32.10
2023-06-10T15:52:37.457Z,32.10
2023-06-10T15:55:04.796Z,32.10
2023-06-10T15:57:31.613Z,32.00
2023-06-10T15:59:58.530Z,31.90
2023-06-10T16:02:25.762Z,31.80
2023-06-10T16:04:52.698Z,31.80
2023-06-10T16:07:19.553Z,31.70
2023-06-10T16:09:47.832Z,31.70
2023-06-10T16:12:14.794Z,31.60
2023-06-10T16:14:42.736Z,31.50
2023-06-10T16:17:09.691Z,31.40
2023-06-10T16:19:39.924Z,31.30
2023-06-10T16:22:07.218Z,31.30
2023-06-10T16:24:34.332Z,31.20
2023-06-10T16:27:02.574Z,31.10
2023-06-10T16:29:29.484Z,31.10
2023-06-10T16:31:56.369Z,31.00
2023-06-10T16:34:23.286Z,31.00
2023-06-10T16:36:50.578Z,30.90
2023-06-10T16:39:17.513Z,30.90
2023-06-10T16:41:44.373Z,30.70
2023-06-10T16:44:12.679Z,30.70
2023-06-10T16:46:39.605Z,30.60
2023-06-10T16:49:06.570Z,30.50
2023-06-10T16:51:34.320Z,30.40
2023-06-10T16:54:01.282Z,30.40
2023-06-10T16:56:28.620Z,30.40
2023-06-10T16:58:55.519Z,30.30
2023-06-10T17:01:23.781Z,30.30
2023-06-10T17:03:50.981Z,30.30
2023-06-10T17:06:19.304Z,30.30
2023-06-10T17:08:46.834Z,30.30
2023-06-10T17:11:13.712Z,30.30
2023-06-10T17:13:42.246Z,30.20
2023-06-10T17:16:09.552Z,30.20
2023-06-10T17:18:37.911Z,30.20
2023-06-10T17:21:04.766Z,30.10
2023-06-10T17:23:31.679Z,30.10
2023-06-10T17:25:58.619Z,30.10
2023-06-10T17:28:25.711Z,30.00
2023-06-10T17:30:52.560Z,30.00
2023-06-10T17:33:19.578Z,29.90
2023-06-10T17:35:48.071Z,29.90
2023-06-10T17:38:16.593Z,29.80
2023-06-10T17:40:44.058Z,29.80
2023-06-10T17:43:11.100Z,29.80
2023-06-10T17:45:37.992Z,29.70
2023-06-10T17:48:05.578Z,29.70
2023-06-10T17:50:32.558Z,29.70
2023-06-10T17:53:00.861Z,29.60
2023-06-10T17:55:27.801Z,29.50
2023-06-10T17:57:54.687Z,29.40
2023-06-10T18:00:21.562Z,29.40
2023-06-10T18:02:48.521Z,29.30
2023-06-10T18:05:15.522Z,29.20
2023-06-10T18:07:43.321Z,29.10
2023-06-10T18:10:12.089Z,29.10
2023-06-10T18:12:39.414Z,29.00
2023-06-10T18:15:07.554Z,28.90
2023-06-10T18:17:36.542Z,28.80
2023-06-10T18:20:03.711Z,28.80
2023-06-10T18:22:31.045Z,28.70
2023-06-10T18:24:58.142Z,28.60
2023-06-10T18:27:26.413Z,28.60
2023-06-10T18:29:53.273Z,28.50
2023-06-10T18:32:20.329Z,28.50
2023-06-10T18:34:47.461Z,28.40
2023-06-10T18:37:14.438Z,28.40
2023-06-10T18:39:41.709Z,28.30
2023-06-10T18:42:09.236Z,28.30
2023-06-10T18:44:37.423Z,28.20
2023-06-10T18:47:04.782Z,28.20
2023-06-10T18:49:32.470Z,28.10
2023-06-10T18:51:59.398Z,28.10
2023-06-10T18:54:26.315Z,28.00
2023-06-10T18:56:53.176Z,28.00
2023-06-10T18:59:20.234Z,28.00
2023-06-10T19:01:48.499Z,27.90
2023-06-10T19:04:15.421Z,27.80
2023-06-10T19:06:42.621Z,27.80
2023-06-10T19:09:09.556Z,27.70
2023-06-10T19:11:36.452Z,27.70
2023-06-10T19:14:03.623Z,27.60
2023-06-10T19:16:30.700Z,27.50
2023-06-10T19:18:58.871Z,27.50
2023-06-10T19:21:25.691Z,27.40
2023-06-10T19:23:52.618Z,27.40
2023-06-10T19:26:19.512Z,27.30
2023-06-10T19:28:46.494Z,27.30
2023-06-10T19:31:13.511Z,27.20
2023-06-10T19:33:40.394Z,27.20
2023-06-10T19:36:08.903Z,27.10
2023-06-10T19:38:36.378Z,27.10
2023-06-10T19:41:05.033Z,27.00
2023-06-10T19:43:32.059Z,27.00
2023-06-10T19:45:58.969Z,26.90
2023-06-10T19:48:25.873Z,26.90
2023-06-10T19:50:52.755Z,26.80
2023-06-10T19:53:21.106Z,26.80
2023-06-10T19:55:47.980Z,26.70
2023-06-10T19:58:14.966Z,26.70
2023-06-10T20:00:41.939Z,26.70
2023-06-10T20:03:09.061Z,26.60
2023-06-10T20:05:38.928Z,26.50
2023-06-10T20:08:06.550Z,26.50
2023-06-10T20:10:34.971Z,26.50
2023-06-10T20:13:02.131Z,26.40
2023-06-10T20:15:29.066Z,26.40
2023-06-10T20:17:56.062Z,26.30
2023-06-10T20:20:22.960Z,26.30
2023-06-10T20:22:49.782Z,26.20
2023-06-10T20:25:17.177Z,26.20
2023-06-10T20:27:45.392Z,26.10
2023-06-10T20:30:13.725Z,26.10
2023-06-10T20:32:40.637Z,26.10
2023-06-10T20:35:08.954Z,26.00
2023-06-10T20:37:36.077Z,25.90
2023-06-10T20:40:05.006Z,25.90
2023-06-10T20:42:31.965Z,25.90
2023-06-10T20:45:00.628Z,25.90
2023-06-10T20:47:27.624Z,25.80
2023-06-10T20:49:54.571Z,25.80
2023-06-10T20:52:21.518Z,25.70
2023-06-10T20:54:48.451Z,25.70
2023-06-10T20:57:15.615Z,25.70
2023-06-10T20:59:42.549Z,25.70
2023-06-10T21:02:11.184Z,25.60
2023-06-10T21:04:38.172Z,25.60
2023-06-10T21:07:05.923Z,25.60
2023-06-10T21:09:32.803Z,25.60
2023-06-10T21:11:59.710Z,25.50
2023-06-10T21:14:26.607Z,25.50
2023-06-10T21:16:53.460Z,25.40
2023-06-10T21:19:21.670Z,25.30
2023-06-10T21:21:48.587Z,25.30
2023-06-10T21:24:15.903Z,25.20
2023-06-10T21:26:42.851Z,25.10
2023-06-10T21:29:10.823Z,25.10
2023-06-10T21:31:38.252Z,25.10
2023-06-10T21:34:05.336Z,25.00
2023-06-10T21:36:33.576Z,25.00
2023-06-10T21:39:00.437Z,24.90
2023-06-10T21:41:30.307Z,24.90
2023-06-10T21:43:57.566Z,24.90
2023-06-10T21:46:24.724Z,24.90
2023-06-10T21:48:51.694Z,24.80
2023-06-10T21:51:18.849Z,24.80
2023-06-10T21:53:47.146Z,24.80
2023-06-10T21:56:13.979Z,24.70
2023-06-10T21:58:41.270Z,24.70
2023-06-10T22:01:08.303Z,24.70
2023-06-10T22:03:35.164Z,24.70
2023-06-10T22:06:03.070Z,24.60
2023-06-10T22:08:30.099Z,24.60
2023-06-10T22:10:58.569Z,24.50
2023-06-10T22:13:25.662Z,24.50
2023-06-10T22:15:52.559Z,24.50
2023-06-10T22:18:19.540Z,24.40
2023-06-10T22:20:46.850Z,24.40
2023-06-10T22:23:19.683Z,24.50
2023-06-10T22:25:46.713Z,24.40
2023-06-10T22:28:15.222Z,24.40
2023-06-10T22:30:42.623Z,24.40
2023-06-10T22:33:12.624Z,24.40
2023-06-10T22:35:39.775Z,24.40
2023-06-10T22:38:06.858Z,24.50
2023-06-10T22:40:33.766Z,24.50
2023-06-10T22:43:01.203Z,24.50
2023-06-10T22:45:29.424Z,24.40
2023-06-10T22:47:56.586Z,24.40
2023-06-10T22:50:25.042Z,24.40
2023-06-10T22:52:52.958Z,24.40
2023-06-10T22:55:19.863Z,24.40
2023-06-10T22:57:46.813Z,24.40
2023-06-10T23:00:15.603Z,24.40
2023-06-10T23:02:44.027Z,24.30
2023-06-10T23:05:14.164Z,24.30
2023-06-10T23:07:41.285Z,24.30
2023-06-10T23:10:09.173Z,24.30
2023-06-10T23:12:36.110Z,24.30
2023-06-10T23:15:03.748Z,24.30
2023-06-10T23:17:30.733Z,24.30
2023-06-10T23:19:59.507Z,24.30
2023-06-10T23:22:26.817Z,24.30
2023-06-10T23:24:57.342Z,24.20
2023-06-10T23:27:24.385Z,24.20
2023-06-10T23:29:59.169Z,24.20
2023-06-10T23:32:27.399Z,24.20
2023-06-10T23:34:54.604Z,24.10
2023-06-10T23:37:22.871Z,24.10
2023-06-10T23:39:49.801Z,24.10
2023-06-10T23:42:17.395Z,24.10
2023-06-10T23:44:44.326Z,24.10
2023-06-10T23:47:11.306Z,24.10
2023-06-10T23:49:38.183Z,24.00
2023-06-10T23:52:06.632Z,24.00
2023-06-10T23:54:34.928Z,24.00
2023-06-10T23:57:03.364Z,24.00
2023-06-10T23:59:30.325Z,23.90
